createdAt,value
2018-07-27T00:01:22.779Z,27.10
2018-07-27T00:06:16.333Z,27.00
2018-07-27T00:11:11.263Z,26.80
2018-07-27T00:16:05.448Z,26.70
2018-07-27T00:21:01.585Z,26.70
2018-07-27T00:25:54.209Z,26.50
2018-07-27T00:30:47.336Z,26.50
2018-07-27T00:35:41.247Z,26.40
2018-07-27T00:40:35.519Z,26.20
2018-07-27T00:45:28.707Z,26.10
2018-07-27T00:50:22.217Z,25.90
2018-07-27T00:55:16.584Z,25.70
2018-07-27T01:00:09.969Z,25.60
2018-07-27T01:05:03.315Z,25.50
2018-07-27T01:09:58.002Z,25.40
2018-07-27T01:14:53.547Z,25.30
2018-07-27T01:19:46.320Z,25.20
2018-07-27T01:24:39.631Z,25.10
2018-07-27T01:29:34.055Z,25.10
2018-07-27T01:34:28.112Z,24.90
2018-07-27T01:39:21.091Z,24.80
2018-07-27T01:44:14.207Z,24.80
2018-07-27T01:49:08.815Z,24.80
2018-07-27T01:54:01.699Z,24.70
2018-07-27T01:58:55.769Z,24.60
2018-07-27T02:03:49.968Z,24.60
2018-07-27T02:08:43.403Z,24.60
2018-07-27T02:13:36.651Z,24.50
2018-07-27T02:18:30.905Z,24.40
2018-07-27T02:23:24.892Z,24.30
2018-07-27T02:28:17.915Z,24.10
2018-07-27T02:33:11.852Z,24.00
2018-07-27T02:38:06.145Z,23.80
2018-07-27T02:43:00.355Z,23.50
2018-07-27T02:47:53.538Z,23.30
2018-07-27T02:52:46.684Z,23.20
2018-07-27T02:57:43.041Z,23.10
2018-07-27T03:02:38.996Z,23.10
2018-07-27T03:07:35.452Z,23.10
2018-07-27T03:12:30.832Z,23.10
2018-07-27T03:17:27.362Z,23.10
2018-07-27T03:22:22.837Z,23.00
2018-07-27T03:27:18.965Z,23.00
2018-07-27T03:32:14.411Z,23.00
2018-07-27T03:37:10.724Z,22.90
2018-07-27T03:42:07.129Z,22.90
2018-07-27T03:47:02.536Z,22.80
2018-07-27T03:51:58.143Z,22.60
2018-07-27T03:56:55.188Z,22.50
2018-07-27T04:01:50.179Z,22.50
2018-07-27T04:06:51.642Z,22.50
2018-07-27T04:11:47.215Z,22.50
2018-07-27T04:16:42.785Z,22.60
2018-07-27T04:21:39.366Z,22.50
2018-07-27T04:26:35.367Z,22.60
2018-07-27T04:31:30.400Z,22.60
2018-07-27T04:36:26.005Z,22.50
2018-07-27T04:41:22.722Z,22.50
2018-07-27T04:46:15.837Z,22.60
2018-07-27T04:51:12.627Z,22.70
2018-07-27T04:56:08.057Z,22.80
2018-07-27T05:01:02.225Z,23.00
2018-07-27T05:05:56.055Z,23.10
2018-07-27T05:10:47.554Z,23.20
2018-07-27T05:15:43.392Z,23.40
2018-07-27T05:20:40.524Z,23.50
2018-07-27T05:25:32.612Z,23.60
2018-07-27T05:30:26.013Z,23.80
2018-07-27T05:35:16.957Z,24.00
2018-07-27T05:40:08.605Z,24.30
2018-07-27T05:45:02.377Z,24.40
2018-07-27T05:49:52.196Z,24.70
2018-07-27T05:54:46.772Z,25.00
2018-07-27T05:59:38.021Z,25.30
2018-07-27T06:04:30.057Z,25.50
2018-07-27T06:09:23.284Z,25.80
2018-07-27T06:14:15.523Z,26.10
2018-07-27T06:19:08.710Z,26.30
2018-07-27T06:24:00.510Z,26.50
2018-07-27T06:28:53.868Z,26.80
2018-07-27T06:33:47.457Z,27.00
2018-07-27T06:38:38.029Z,27.30
2018-07-27T06:43:30.901Z,27.60
2018-07-27T06:48:25.362Z,27.90
2018-07-27T06:53:19.450Z,28.20
2018-07-27T06:58:16.961Z,28.50
2018-07-27T07:03:05.738Z,28.80
2018-07-27T07:07:56.386Z,29.10
2018-07-27T07:12:48.082Z,29.40
2018-07-27T07:17:40.272Z,29.70
2018-07-27T07:22:33.031Z,30.00
2018-07-27T07:27:24.573Z,30.30
2018-07-27T07:32:16.687Z,30.70
2018-07-27T07:37:10.744Z,31.20
2018-07-27T07:42:05.848Z,31.60
2018-07-27T07:46:59.300Z,32.00
2018-07-27T07:51:55.643Z,32.40
2018-07-27T07:56:49.026Z,32.80
2018-07-27T08:01:44.852Z,33.20
2018-07-27T08:06:39.415Z,33.70
2018-07-27T08:11:32.747Z,34.10
2018-07-27T08:16:26.342Z,34.40
2018-07-27T08:21:20.245Z,34.70
2018-07-27T08:26:13.810Z,34.90
2018-07-27T08:31:07.532Z,35.00
2018-07-27T08:36:01.123Z,35.00
2018-07-27T08:40:54.876Z,35.00
2018-07-27T08:45:48.804Z,35.50
2018-07-27T08:50:42.532Z,35.50
2018-07-27T08:55:38.572Z,35.80
2018-07-27T09:00:34.105Z,36.20
2018-07-27T09:05:29.413Z,36.60
2018-07-27T09:10:24.960Z,36.90
2018-07-27T09:15:20.329Z,37.30
2018-07-27T09:20:15.992Z,37.70
2018-07-27T09:25:16.366Z,37.80
2018-07-27T09:30:12.651Z,37.80
2018-07-27T09:35:07.178Z,38.10
2018-07-27T09:40:02.897Z,38.40
2018-07-27T09:44:57.895Z,38.30
2018-07-27T09:49:53.190Z,38.20
2018-07-27T09:54:48.857Z,38.30
2018-07-27T09:59:43.501Z,38.80
2018-07-27T10:04:38.506Z,39.20
2018-07-27T10:09:33.990Z,39.30
2018-07-27T10:14:29.161Z,39.10
2018-07-27T10:19:25.618Z,38.90
2018-07-27T10:24:26.703Z,38.80
2018-07-27T10:29:20.523Z,38.50
2018-07-27T10:34:17.207Z,38.30
2018-07-27T10:39:11.849Z,38.40
2018-07-27T10:44:06.802Z,37.80
2018-07-27T10:49:01.861Z,37.80
2018-07-27T10:54:02.073Z,38.30
2018-07-27T10:58:58.748Z,39.10
2018-07-27T11:04:18.928Z,39.60
2018-07-27T11:09:13.870Z,40.30
2018-07-27T11:14:09.032Z,40.70
2018-07-27T11:19:05.955Z,40.90
2018-07-27T11:24:01.444Z,41.20
2018-07-27T11:28:59.578Z,41.20
2018-07-27T11:33:58.232Z,41.20
2018-07-27T11:38:54.818Z,41.10
2018-07-27T11:43:53.640Z,41.50
2018-07-27T11:48:51.953Z,42.10
2018-07-27T11:53:49.159Z,42.20
2018-07-27T11:58:44.964Z,42.30
2018-07-27T12:03:42.205Z,42.60
2018-07-27T12:08:41.598Z,42.70
2018-07-27T12:13:45.444Z,42.50
2018-07-27T12:18:46.808Z,42.70
2018-07-27T12:23:57.135Z,42.70
2018-07-27T12:28:59.692Z,42.80
2018-07-27T12:33:55.772Z,42.60
2018-07-27T12:39:01.293Z,42.80
2018-07-27T12:49:04.292Z,43.10
2018-07-27T12:54:00.881Z,43.20
2018-07-27T13:04:46.969Z,42.40
2018-07-27T13:09:44.359Z,42.10
2018-07-27T13:15:33.084Z,42.40
2018-07-27T13:25:47.988Z,42.40
2018-07-27T13:30:42.993Z,42.50
2018-07-27T13:35:44.641Z,42.40
2018-07-27T13:40:40.887Z,42.20
2018-07-27T13:52:08.520Z,42.00
2018-07-27T13:57:32.946Z,41.60
2018-07-27T14:02:37.459Z,41.90
2018-07-27T14:07:32.555Z,42.10
2018-07-27T14:12:26.215Z,42.30
2018-07-27T14:17:26.665Z,42.30
2018-07-27T14:22:24.028Z,42.20
2018-07-27T14:27:29.250Z,42.30
2018-07-27T14:32:35.402Z,42.10
2018-07-27T14:42:47.255Z,41.50
2018-07-27T14:47:42.232Z,41.20
2018-07-27T14:57:44.845Z,41.10
2018-07-27T15:02:39.759Z,41.00
2018-07-27T15:13:02.235Z,40.90
2018-07-27T15:17:58.691Z,40.80
2018-07-27T15:22:53.788Z,40.70
2018-07-27T15:28:00.388Z,40.30
2018-07-27T15:33:02.055Z,40.00
2018-07-27T15:38:11.083Z,39.50
2018-07-27T15:43:06.114Z,39.10
2018-07-27T15:48:03.611Z,38.80
2018-07-27T15:52:59.245Z,38.60
2018-07-27T15:57:56.122Z,38.40
2018-07-27T16:02:51.702Z,38.10
2018-07-27T16:07:47.095Z,37.70
2018-07-27T16:12:42.066Z,37.50
2018-07-27T16:17:45.900Z,37.30
2018-07-27T16:22:40.405Z,37.00
2018-07-27T16:27:35.554Z,36.80
2018-07-27T16:32:32.300Z,36.80
2018-07-27T16:37:28.075Z,36.70
2018-07-27T16:42:26.113Z,36.60
2018-07-27T16:47:22.086Z,36.30
2018-07-27T16:52:16.870Z,36.30
2018-07-27T16:57:12.372Z,36.20
2018-07-27T17:02:07.568Z,36.00
2018-07-27T17:07:03.351Z,35.90
2018-07-27T17:11:58.190Z,35.90
2018-07-27T17:16:55.241Z,35.70
2018-07-27T17:21:50.696Z,35.70
2018-07-27T17:26:46.761Z,35.60
2018-07-27T17:31:41.814Z,35.50
2018-07-27T17:36:37.761Z,35.40
2018-07-27T17:41:30.585Z,35.30
2018-07-27T17:46:26.084Z,35.20
2018-07-27T17:51:20.797Z,35.20
2018-07-27T17:56:15.481Z,35.00
2018-07-27T18:01:10.585Z,35.00
2018-07-27T18:06:05.849Z,34.90
2018-07-27T18:11:01.767Z,34.80
2018-07-27T18:15:56.504Z,34.70
2018-07-27T18:20:49.532Z,34.60
2018-07-27T18:25:46.193Z,34.50
2018-07-27T18:30:41.918Z,34.40
2018-07-27T18:35:37.742Z,34.20
2018-07-27T18:40:33.480Z,34.10
2018-07-27T18:45:28.135Z,33.90
2018-07-27T18:50:22.176Z,33.80
2018-07-27T18:55:18.295Z,33.70
2018-07-27T19:00:13.752Z,33.50
2018-07-27T19:05:09.033Z,33.40
2018-07-27T19:10:03.008Z,33.30
2018-07-27T19:14:57.265Z,33.20
2018-07-27T19:19:51.682Z,33.00
2018-07-27T19:24:48.488Z,32.90
2018-07-27T19:29:43.341Z,32.80
2018-07-27T19:34:36.954Z,32.60
2018-07-27T19:39:32.966Z,32.40
2018-07-27T19:44:26.244Z,32.20
2018-07-27T19:49:20.701Z,32.20
2018-07-27T19:54:14.726Z,32.00
2018-07-27T19:59:08.789Z,31.80
2018-07-27T20:04:03.280Z,31.60
2018-07-27T20:08:57.244Z,31.50
2018-07-27T20:13:51.841Z,31.40
2018-07-27T20:18:46.016Z,31.30
2018-07-27T20:23:39.508Z,31.10
2018-07-27T20:28:33.724Z,31.00
2018-07-27T20:33:27.850Z,30.90
2018-07-27T20:38:21.952Z,30.70
2018-07-27T20:43:15.903Z,30.50
2018-07-27T20:48:09.802Z,30.30
2018-07-27T20:53:04.097Z,30.20
2018-07-27T20:57:58.104Z,30.00
2018-07-27T21:02:52.344Z,29.90
2018-07-27T21:07:46.533Z,29.80
2018-07-27T21:12:40.269Z,29.70
2018-07-27T21:17:34.401Z,29.50
2018-07-27T21:22:28.676Z,29.30
2018-07-27T21:27:22.908Z,29.20
2018-07-27T21:32:16.268Z,29.10
2018-07-27T21:37:10.679Z,29.00
2018-07-27T21:42:04.810Z,28.90
2018-07-27T21:46:58.233Z,28.80
2018-07-27T21:51:52.016Z,28.70
2018-07-27T21:56:46.244Z,28.60
2018-07-27T22:01:40.572Z,28.50
2018-07-27T22:06:33.640Z,28.40
2018-07-27T22:11:27.028Z,28.30
2018-07-27T22:16:20.448Z,28.20
2018-07-27T22:21:16.348Z,28.10
2018-07-27T22:26:09.120Z,27.90
2018-07-27T22:31:02.349Z,27.80
2018-07-27T22:35:55.511Z,27.70
2018-07-27T22:40:49.168Z,27.70
2018-07-27T22:45:43.699Z,27.60
2018-07-27T22:50:36.836Z,27.60
2018-07-27T22:55:30.200Z,27.50
2018-07-27T23:00:23.485Z,27.50
2018-07-27T23:05:17.789Z,27.40
2018-07-27T23:10:10.989Z,27.50
2018-07-27T23:15:04.572Z,27.50
2018-07-27T23:19:59.572Z,27.50
2018-07-27T23:24:53.720Z,27.50
2018-07-27T23:29:47.378Z,27.50
2018-07-27T23:34:41.672Z,27.40
2018-07-27T23:39:34.814Z,27.40
2018-07-27T23:44:28.073Z,27.40
2018-07-27T23:49:22.591Z,27.40
2018-07-27T23:54:16.301Z,27.40
2018-07-27T23:59:09.546Z,27.30
